sensor_id;sensor_type;location;lat;lon;timestamp;pressure;altitude;pressure_sealevel;temperature;humidity
72061;BME280;59925;52.136;5.420;2022-09-09T00:00:40;100924.28;;;14.85;85.38
72061;BME280;59925;52.136;5.420;2022-09-09T00:03:12;100920.19;;;14.88;85.54
72061;BME280;59925;52.136;5.420;2022-09-09T00:06:01;100917.56;;;14.83;85.66
72061;BME280;59925;52.136;5.420;2022-09-09T00:08:45;100904.38;;;14.81;85.65
72061;BME280;59925;52.136;5.420;2022-09-09T00:11:24;100905.75;;;14.79;85.67
72061;BME280;59925;52.136;5.420;2022-09-09T00:13:58;100900.88;;;14.81;85.79
72061;BME280;59925;52.136;5.420;2022-09-09T00:16:32;100898.09;;;14.86;85.44
72061;BME280;59925;52.136;5.420;2022-09-09T00:19:07;100905.38;;;14.85;85.51
72061;BME280;59925;52.136;5.420;2022-09-09T00:21:49;100891.88;;;14.85;85.29
72061;BME280;59925;52.136;5.420;2022-09-09T00:24:25;100899.28;;;14.80;85.54
72061;BME280;59925;52.136;5.420;2022-09-09T00:26:59;100901.19;;;14.79;85.66
72061;BME280;59925;52.136;5.420;2022-09-09T00:29:41;100895.78;;;14.79;85.77
72061;BME280;59925;52.136;5.420;2022-09-09T00:32:13;100903.88;;;14.79;85.53
72061;BME280;59925;52.136;5.420;2022-09-09T00:34:53;100908.47;;;14.79;85.92
72061;BME280;59925;52.136;5.420;2022-09-09T00:37:22;100903.38;;;14.77;85.94
72061;BME280;59925;52.136;5.420;2022-09-09T00:39:54;100896.75;;;14.69;85.96
72061;BME280;59925;52.136;5.420;2022-09-09T00:42:26;100898.72;;;14.64;86.34
72061;BME280;59925;52.136;5.420;2022-09-09T00:44:59;100891.19;;;14.61;86.71
72061;BME280;59925;52.136;5.420;2022-09-09T00:47:50;100895.56;;;14.56;86.81
72061;BME280;59925;52.136;5.420;2022-09-09T00:50:43;100888.38;;;14.52;87.06
72061;BME280;59925;52.136;5.420;2022-09-09T00:56:25;100892.53;;;14.44;87.39
72061;BME280;59925;52.136;5.420;2022-09-09T01:01:30;100899.31;;;14.41;87.41
72061;BME280;59925;52.136;5.420;2022-09-09T01:03:57;100900.13;;;14.42;87.26
72061;BME280;59925;52.136;5.420;2022-09-09T01:06:35;100901.00;;;14.37;87.33
72061;BME280;59925;52.136;5.420;2022-09-09T01:12:15;100911.56;;;14.34;87.49
72061;BME280;59925;52.136;5.420;2022-09-09T01:14:47;100910.78;;;14.33;87.32
72061;BME280;59925;52.136;5.420;2022-09-09T01:17:20;100909.97;;;14.33;87.41
72061;BME280;59925;52.136;5.420;2022-09-09T01:20:24;100901.47;;;14.25;87.42
72061;BME280;59925;52.136;5.420;2022-09-09T01:23:29;100903.72;;;14.18;87.69
72061;BME280;59925;52.136;5.420;2022-09-09T01:28:38;100887.63;;;14.13;87.74
72061;BME280;59925;52.136;5.420;2022-09-09T01:31:06;100886.81;;;14.13;87.74
72061;BME280;59925;52.136;5.420;2022-09-09T01:33:34;100885.50;;;14.10;87.68
72061;BME280;59925;52.136;5.420;2022-09-09T01:36:08;100882.28;;;14.08;87.41
72061;BME280;59925;52.136;5.420;2022-09-09T01:38:37;100879.09;;;14.06;87.66
72061;BME280;59925;52.136;5.420;2022-09-09T01:41:04;100872.91;;;14.05;87.64
72061;BME280;59925;52.136;5.420;2022-09-09T01:43:30;100872.69;;;14.02;87.93
72061;BME280;59925;52.136;5.420;2022-09-09T01:45:59;100882.97;;;14.00;87.84
72061;BME280;59925;52.136;5.420;2022-09-09T01:48:27;100877.34;;;13.96;87.97
72061;BME280;59925;52.136;5.420;2022-09-09T01:50:54;100884.63;;;13.95;88.05
72061;BME280;59925;52.136;5.420;2022-09-09T01:53:21;100885.19;;;13.92;87.95
72061;BME280;59925;52.136;5.420;2022-09-09T02:01:27;100876.13;;;13.88;87.82
72061;BME280;59925;52.136;5.420;2022-09-09T02:04:03;100879.09;;;13.87;87.90
72061;BME280;59925;52.136;5.420;2022-09-09T02:06:38;100875.59;;;13.86;87.94
72061;BME280;59925;52.136;5.420;2022-09-09T02:09:07;100875.88;;;13.85;87.88
72061;BME280;59925;52.136;5.420;2022-09-09T02:11:36;100872.97;;;13.81;88.00
72061;BME280;59925;52.136;5.420;2022-09-09T02:14:08;100870.84;;;13.78;88.06
72061;BME280;59925;52.136;5.420;2022-09-09T02:16:44;100864.16;;;13.75;88.06
72061;BME280;59925;52.136;5.420;2022-09-09T02:19:18;100866.31;;;13.73;88.20
72061;BME280;59925;52.136;5.420;2022-09-09T02:21:53;100862.63;;;13.69;88.30
72061;BME280;59925;52.136;5.420;2022-09-09T02:24:21;100866.41;;;13.68;88.36
72061;BME280;59925;52.136;5.420;2022-09-09T02:26:50;100860.00;;;13.64;88.37
72061;BME280;59925;52.136;5.420;2022-09-09T02:29:22;100860.78;;;13.64;88.20
72061;BME280;59925;52.136;5.420;2022-09-09T02:31:50;100860.03;;;13.59;88.38
72061;BME280;59925;52.136;5.420;2022-09-09T02:34:21;100857.13;;;13.55;88.70
72061;BME280;59925;52.136;5.420;2022-09-09T02:36:52;100863.91;;;13.53;88.81
72061;BME280;59925;52.136;5.420;2022-09-09T02:39:20;100861.50;;;13.51;88.81
72061;BME280;59925;52.136;5.420;2022-09-09T02:41:46;100862.88;;;13.48;88.79
72061;BME280;59925;52.136;5.420;2022-09-09T02:44:15;100860.47;;;13.47;88.79
72061;BME280;59925;52.136;5.420;2022-09-09T02:52:07;100861.06;;;13.39;89.00
72061;BME280;59925;52.136;5.420;2022-09-09T02:54:40;100861.38;;;13.37;89.06
72061;BME280;59925;52.136;5.420;2022-09-09T02:57:19;100855.97;;;13.37;89.00
72061;BME280;59925;52.136;5.420;2022-09-09T02:59:49;100853.59;;;13.36;89.02
72061;BME280;59925;52.136;5.420;2022-09-09T03:02:16;100850.38;;;13.33;89.03
72061;BME280;59925;52.136;5.420;2022-09-09T03:04:42;100852.56;;;13.31;89.07
72061;BME280;59925;52.136;5.420;2022-09-09T03:07:11;100854.16;;;13.32;88.98
72061;BME280;59925;52.136;5.420;2022-09-09T03:09:38;100852.81;;;13.30;88.91
72061;BME280;59925;52.136;5.420;2022-09-09T03:12:04;100854.50;;;13.26;88.99
72061;BME280;59925;52.136;5.420;2022-09-09T03:14:30;100854.78;;;13.24;88.84
72061;BME280;59925;52.136;5.420;2022-09-09T03:16:57;100851.81;;;13.26;88.73
72061;BME280;59925;52.136;5.420;2022-09-09T03:19:26;100854.56;;;13.21;88.92
72061;BME280;59925;52.136;5.420;2022-09-09T03:21:53;100858.09;;;13.16;89.19
72061;BME280;59925;52.136;5.420;2022-09-09T03:24:20;100854.63;;;13.15;89.10
72061;BME280;59925;52.136;5.420;2022-09-09T03:26:47;100857.59;;;13.14;89.08
72061;BME280;59925;52.136;5.420;2022-09-09T03:29:14;100858.16;;;13.11;89.25
72061;BME280;59925;52.136;5.420;2022-09-09T03:31:40;100849.28;;;13.10;89.26
72061;BME280;59925;52.136;5.420;2022-09-09T03:34:07;100845.81;;;13.10;89.58
72061;BME280;59925;52.136;5.420;2022-09-09T03:36:34;100852.53;;;13.07;89.66
72061;BME280;59925;52.136;5.420;2022-09-09T03:39:00;100846.38;;;13.07;89.81
72061;BME280;59925;52.136;5.420;2022-09-09T03:41:27;100850.72;;;13.02;89.82
72061;BME280;59925;52.136;5.420;2022-09-09T03:43:54;100844.25;;;13.03;89.85
72061;BME280;59925;52.136;5.420;2022-09-09T03:46:23;100855.00;;;13.03;89.99
72061;BME280;59925;52.136;5.420;2022-09-09T03:48:50;100853.41;;;13.02;89.87
72061;BME280;59925;52.136;5.420;2022-09-09T03:51:17;100851.81;;;13.01;89.81
72061;BME280;59925;52.136;5.420;2022-09-09T03:53:44;100846.72;;;13.00;89.96
72061;BME280;59925;52.136;5.420;2022-09-09T03:56:10;100846.97;;;12.98;90.11
72061;BME280;59925;52.136;5.420;2022-09-09T03:58:37;100848.88;;;12.98;90.02
72061;BME280;59925;52.136;5.420;2022-09-09T04:01:06;100845.38;;;12.97;89.99
72061;BME280;59925;52.136;5.420;2022-09-09T04:03:35;100838.69;;;12.95;90.27
72061;BME280;59925;52.136;5.420;2022-09-09T04:06:03;100842.19;;;12.95;90.07
72061;BME280;59925;52.136;5.420;2022-09-09T04:08:30;100840.84;;;12.93;90.18
72061;BME280;59925;52.136;5.420;2022-09-09T04:10:58;100838.47;;;12.91;90.27
72061;BME280;59925;52.136;5.420;2022-09-09T04:13:25;100847.63;;;12.90;90.39
72061;BME280;59925;52.136;5.420;2022-09-09T04:15:54;100842.78;;;12.87;90.45
72061;BME280;59925;52.136;5.420;2022-09-09T04:18:21;100848.19;;;12.87;90.33
72061;BME280;59925;52.136;5.420;2022-09-09T04:20:48;100842.78;;;12.87;90.41
72061;BME280;59925;52.136;5.420;2022-09-09T04:23:16;100842.00;;;12.86;90.25
72061;BME280;59925;52.136;5.420;2022-09-09T04:25:46;100837.41;;;12.87;90.34
72061;BME280;59925;52.136;5.420;2022-09-09T04:28:16;100823.69;;;12.88;90.36
72061;BME280;59925;52.136;5.420;2022-09-09T04:30:43;100831.19;;;12.92;90.32
72061;BME280;59925;52.136;5.420;2022-09-09T04:33:11;100832.00;;;12.92;90.52
72061;BME280;59925;52.136;5.420;2022-09-09T04:35:38;100830.59;;;12.95;90.70
72061;BME280;59925;52.136;5.420;2022-09-09T04:38:05;100838.13;;;12.98;90.62
72061;BME280;59925;52.136;5.420;2022-09-09T04:40:34;100835.94;;;13.00;90.82
72061;BME280;59925;52.136;5.420;2022-09-09T04:43:01;100836.16;;;13.03;90.77
72061;BME280;59925;52.136;5.420;2022-09-09T04:45:27;100828.31;;;13.07;91.09
72061;BME280;59925;52.136;5.420;2022-09-09T04:47:54;100823.97;;;13.11;91.28
72061;BME280;59925;52.136;5.420;2022-09-09T04:50:20;100819.91;;;13.14;90.92
72061;BME280;59925;52.136;5.420;2022-09-09T04:52:46;100823.13;;;13.16;91.02
72061;BME280;59925;52.136;5.420;2022-09-09T04:55:13;100817.72;;;13.16;91.06
72061;BME280;59925;52.136;5.420;2022-09-09T04:57:40;100807.78;;;13.16;91.06
72061;BME280;59925;52.136;5.420;2022-09-09T05:00:08;100808.06;;;13.15;91.14
72061;BME280;59925;52.136;5.420;2022-09-09T05:02:37;100823.13;;;13.16;90.97
72061;BME280;59925;52.136;5.420;2022-09-09T05:05:05;100824.19;;;13.15;90.98
72061;BME280;59925;52.136;5.420;2022-09-09T05:07:32;100826.63;;;13.16;90.75
72061;BME280;59925;52.136;5.420;2022-09-09T05:09:59;100820.13;;;13.17;90.71
72061;BME280;59925;52.136;5.420;2022-09-09T05:12:25;100831.41;;;13.19;90.57
72061;BME280;59925;52.136;5.420;2022-09-09T05:14:52;100829.31;;;13.16;90.76
72061;BME280;59925;52.136;5.420;2022-09-09T05:17:19;100822.03;;;13.17;90.66
72061;BME280;59925;52.136;5.420;2022-09-09T05:19:45;100820.13;;;13.17;90.89
72061;BME280;59925;52.136;5.420;2022-09-09T05:22:11;100823.94;;;13.16;90.77
72061;BME280;59925;52.136;5.420;2022-09-09T05:24:38;100817.44;;;13.17;91.01
72061;BME280;59925;52.136;5.420;2022-09-09T05:27:05;100811.78;;;13.19;90.86
72061;BME280;59925;52.136;5.420;2022-09-09T05:29:32;100810.19;;;13.18;90.91
72061;BME280;59925;52.136;5.420;2022-09-09T05:31:59;100806.41;;;13.19;90.97
72061;BME280;59925;52.136;5.420;2022-09-09T05:34:27;100809.59;;;13.21;91.02
72061;BME280;59925;52.136;5.420;2022-09-09T05:36:53;100801.53;;;13.21;91.00
72061;BME280;59925;52.136;5.420;2022-09-09T05:39:20;100804.75;;;13.23;91.03
72061;BME280;59925;52.136;5.420;2022-09-09T05:41:46;100807.66;;;13.27;91.11
72061;BME280;59925;52.136;5.420;2022-09-09T05:44:14;100803.28;;;13.31;91.10
72061;BME280;59925;52.136;5.420;2022-09-09T05:46:40;100812.97;;;13.32;91.02
72061;BME280;59925;52.136;5.420;2022-09-09T05:49:07;100812.69;;;13.33;91.02
72061;BME280;59925;52.136;5.420;2022-09-09T05:51:35;100807.00;;;13.35;90.99
72061;BME280;59925;52.136;5.420;2022-09-09T05:54:01;100812.38;;;13.40;90.99
72061;BME280;59925;52.136;5.420;2022-09-09T05:56:29;100802.84;;;13.48;91.09
72061;BME280;59925;52.136;5.420;2022-09-09T05:58:55;100805.66;;;13.57;91.03
72061;BME280;59925;52.136;5.420;2022-09-09T06:01:27;100813.69;;;13.62;91.02
72061;BME280;59925;52.136;5.420;2022-09-09T06:03:54;100817.31;;;13.71;90.94
72061;BME280;59925;52.136;5.420;2022-09-09T06:06:23;100831.66;;;14.05;91.54
72061;BME280;59925;52.136;5.420;2022-09-09T06:08:53;100827.25;;;14.61;90.51
72061;BME280;59925;52.136;5.420;2022-09-09T06:11:22;100824.91;;;14.74;88.33
72061;BME280;59925;52.136;5.420;2022-09-09T06:13:50;100821.16;;;14.55;87.64
72061;BME280;59925;52.136;5.420;2022-09-09T06:16:25;100820.03;;;14.43;88.02
72061;BME280;59925;52.136;5.420;2022-09-09T06:18:53;100819.81;;;14.39;88.46
72061;BME280;59925;52.136;5.420;2022-09-09T06:21:23;100820.31;;;14.41;88.66
72061;BME280;59925;52.136;5.420;2022-09-09T06:23:50;100821.81;;;14.47;88.42
72061;BME280;59925;52.136;5.420;2022-09-09T06:26:23;100815.53;;;14.52;88.74
72061;BME280;59925;52.136;5.420;2022-09-09T06:28:51;100817.66;;;14.55;88.68
72061;BME280;59925;52.136;5.420;2022-09-09T06:31:23;100816.56;;;14.56;88.64
72061;BME280;59925;52.136;5.420;2022-09-09T06:33:56;100808.66;;;14.60;88.66
72061;BME280;59925;52.136;5.420;2022-09-09T06:36:25;100816.38;;;14.66;88.69
72061;BME280;59925;52.136;5.420;2022-09-09T06:38:52;100809.13;;;14.81;88.83
72061;BME280;59925;52.136;5.420;2022-09-09T06:41:20;100799.84;;;15.01;88.52
72061;BME280;59925;52.136;5.420;2022-09-09T06:43:46;100802.94;;;15.22;88.36
72061;BME280;59925;52.136;5.420;2022-09-09T06:46:21;100804.22;;;15.39;87.89
72061;BME280;59925;52.136;5.420;2022-09-09T06:48:54;100807.19;;;15.37;87.30
72061;BME280;59925;52.136;5.420;2022-09-09T06:51:28;100806.91;;;15.39;87.17
72061;BME280;59925;52.136;5.420;2022-09-09T06:53:57;100808.88;;;15.47;87.52
72061;BME280;59925;52.136;5.420;2022-09-09T06:56:35;100809.88;;;15.51;86.94
72061;BME280;59925;52.136;5.420;2022-09-09T06:59:04;100810.69;;;15.52;86.86
72061;BME280;59925;52.136;5.420;2022-09-09T07:01:33;100805.66;;;15.59;86.57
72061;BME280;59925;52.136;5.420;2022-09-09T07:04:00;100800.69;;;15.52;86.60
72061;BME280;59925;52.136;5.420;2022-09-09T07:06:32;100807.88;;;15.57;86.39
72061;BME280;59925;52.136;5.420;2022-09-09T07:09:00;100818.56;;;15.62;86.24
72061;BME280;59925;52.136;5.420;2022-09-09T07:11:29;100806.13;;;15.75;86.14
72061;BME280;59925;52.136;5.420;2022-09-09T07:13:57;100812.13;;;15.86;86.08
72061;BME280;59925;52.136;5.420;2022-09-09T07:16:25;100814.94;;;16.03;85.99
72061;BME280;59925;52.136;5.420;2022-09-09T07:18:53;100809.53;;;16.03;85.56
72061;BME280;59925;52.136;5.420;2022-09-09T07:21:28;100810.78;;;15.97;85.00
72061;BME280;59925;52.136;5.420;2022-09-09T07:23:55;100809.59;;;15.89;85.31
72061;BME280;59925;52.136;5.420;2022-09-09T07:26:27;100805.81;;;15.90;84.92
72061;BME280;59925;52.136;5.420;2022-09-09T07:28:55;100807.22;;;15.88;84.84
72061;BME280;59925;52.136;5.420;2022-09-09T07:31:28;100806.41;;;15.87;84.85
72061;BME280;59925;52.136;5.420;2022-09-09T07:33:57;100819.19;;;15.96;84.94
72061;BME280;59925;52.136;5.420;2022-09-09T07:36:28;100823.91;;;15.90;84.69
72061;BME280;59925;52.136;5.420;2022-09-09T07:39:04;100810.09;;;15.91;84.84
72061;BME280;59925;52.136;5.420;2022-09-09T07:41:33;100815.44;;;16.05;84.76
72061;BME280;59925;52.136;5.420;2022-09-09T07:44:26;100817.78;;;16.21;84.43
72061;BME280;59925;52.136;5.420;2022-09-09T07:46:51;100813.44;;;16.34;83.43
72061;BME280;59925;52.136;5.420;2022-09-09T07:49:17;100813.47;;;16.43;82.61
72061;BME280;59925;52.136;5.420;2022-09-09T07:51:52;100809.78;;;16.70;82.26
72061;BME280;59925;52.136;5.420;2022-09-09T07:54:19;100807.19;;;16.96;82.31
72061;BME280;59925;52.136;5.420;2022-09-09T07:56:47;100802.94;;;17.04;81.09
72061;BME280;59925;52.136;5.420;2022-09-09T07:59:13;100808.06;;;17.14;80.55
72061;BME280;59925;52.136;5.420;2022-09-09T08:01:45;100812.06;;;17.17;80.38
72061;BME280;59925;52.136;5.420;2022-09-09T08:04:14;100812.81;;;17.09;79.78
72061;BME280;59925;52.136;5.420;2022-09-09T08:06:45;100812.00;;;16.99;80.01
72061;BME280;59925;52.136;5.420;2022-09-09T08:09:12;100814.44;;;16.78;79.72
72061;BME280;59925;52.136;5.420;2022-09-09T08:11:40;100814.59;;;16.73;80.21
72061;BME280;59925;52.136;5.420;2022-09-09T08:14:08;100820.28;;;16.72;79.84
72061;BME280;59925;52.136;5.420;2022-09-09T08:16:38;100818.19;;;16.68;80.33
72061;BME280;59925;52.136;5.420;2022-09-09T08:19:06;100818.53;;;16.67;79.97
72061;BME280;59925;52.136;5.420;2022-09-09T08:21:37;100821.19;;;16.58;80.58
72061;BME280;59925;52.136;5.420;2022-09-09T08:24:07;100815.78;;;16.58;80.29
72061;BME280;59925;52.136;5.420;2022-09-09T08:26:42;100820.69;;;16.56;80.61
72061;BME280;59925;52.136;5.420;2022-09-09T08:29:10;100829.00;;;16.60;80.42
72061;BME280;59925;52.136;5.420;2022-09-09T08:31:43;100824.94;;;16.48;79.91
72061;BME280;59925;52.136;5.420;2022-09-09T08:34:11;100826.09;;;16.47;80.54
72061;BME280;59925;52.136;5.420;2022-09-09T08:36:44;100828.47;;;16.49;80.46
72061;BME280;59925;52.136;5.420;2022-09-09T08:39:14;100835.47;;;16.50;80.54
72061;BME280;59925;52.136;5.420;2022-09-09T08:41:54;100834.19;;;16.47;80.30
72061;BME280;59925;52.136;5.420;2022-09-09T08:44:55;100837.69;;;16.48;80.27
72061;BME280;59925;52.136;5.420;2022-09-09T08:53:02;100839.47;;;16.52;79.66
72061;BME280;59925;52.136;5.420;2022-09-09T08:55:58;100840.28;;;16.53;79.32
72061;BME280;59925;52.136;5.420;2022-09-09T08:58:31;100846.81;;;16.61;79.54
72061;BME280;59925;52.136;5.420;2022-09-09T09:11:54;100845.03;;;16.88;78.90
72061;BME280;59925;52.136;5.420;2022-09-09T09:14:32;100847.94;;;16.91;78.76
72061;BME280;59925;52.136;5.420;2022-09-09T09:17:05;100855.56;;;16.89;79.02
72061;BME280;59925;52.136;5.420;2022-09-09T09:19:34;100850.28;;;16.84;78.89
72061;BME280;59925;52.136;5.420;2022-09-09T09:22:10;100846.91;;;16.78;78.51
72061;BME280;59925;52.136;5.420;2022-09-09T09:24:53;100855.19;;;16.73;78.88
72061;BME280;59925;52.136;5.420;2022-09-09T09:27:32;100851.19;;;16.70;78.52
72061;BME280;59925;52.136;5.420;2022-09-09T09:30:02;100859.47;;;16.74;78.53
72061;BME280;59925;52.136;5.420;2022-09-09T09:32:59;100855.22;;;16.82;78.37
72061;BME280;59925;52.136;5.420;2022-09-09T09:35:26;100859.06;;;16.90;78.14
72061;BME280;59925;52.136;5.420;2022-09-09T09:37:53;100852.88;;;16.89;77.89
72061;BME280;59925;52.136;5.420;2022-09-09T09:40:52;100858.78;;;16.91;77.69
72061;BME280;59925;52.136;5.420;2022-09-09T09:43:26;100848.72;;;16.92;77.63
72061;BME280;59925;52.136;5.420;2022-09-09T09:45:53;100855.44;;;16.94;77.82
72061;BME280;59925;52.136;5.420;2022-09-09T09:48:40;100848.25;;;16.90;77.48
72061;BME280;59925;52.136;5.420;2022-09-09T09:51:09;100852.25;;;16.92;77.65
72061;BME280;59925;52.136;5.420;2022-09-09T09:53:41;100854.72;;;17.03;77.89
72061;BME280;59925;52.136;5.420;2022-09-09T09:56:11;100851.38;;;17.06;77.79
72061;BME280;59925;52.136;5.420;2022-09-09T09:58:49;100853.00;;;17.15;77.51
72061;BME280;59925;52.136;5.420;2022-09-09T10:01:31;100846.44;;;17.08;77.13
72061;BME280;59925;52.136;5.420;2022-09-09T10:04:00;100852.97;;;17.07;76.99
72061;BME280;59925;52.136;5.420;2022-09-09T10:06:37;100851.06;;;17.07;77.20
72061;BME280;59925;52.136;5.420;2022-09-09T10:09:21;100845.97;;;17.14;77.22
72061;BME280;59925;52.136;5.420;2022-09-09T10:14:26;100852.53;;;17.13;77.30
72061;BME280;59925;52.136;5.420;2022-09-09T10:19:36;100850.56;;;17.05;77.24
72061;BME280;59925;52.136;5.420;2022-09-09T10:33:08;100864.44;;;17.04;76.53
72061;BME280;59925;52.136;5.420;2022-09-09T10:38:14;100866.84;;;16.82;79.44
72061;BME280;59925;52.136;5.420;2022-09-09T10:43:35;100857.34;;;16.94;80.45
72061;BME280;59925;52.136;5.420;2022-09-09T10:46:37;100852.53;;;16.91;80.65
72061;BME280;59925;52.136;5.420;2022-09-09T10:49:21;100866.03;;;16.82;80.74
72061;BME280;59925;52.136;5.420;2022-09-09T10:57:13;100866.03;;;16.82;81.90
72061;BME280;59925;52.136;5.420;2022-09-09T10:59:48;100864.44;;;16.81;82.20
72061;BME280;59925;52.136;5.420;2022-09-09T11:02:27;100858.78;;;16.91;82.50
72061;BME280;59925;52.136;5.420;2022-09-09T11:05:05;100855.50;;;17.03;82.32
72061;BME280;59925;52.136;5.420;2022-09-09T11:07:44;100856.28;;;17.44;82.64
72061;BME280;59925;52.136;5.420;2022-09-09T11:10:30;100858.38;;;17.65;81.17
72061;BME280;59925;52.136;5.420;2022-09-09T11:13:04;100851.38;;;17.81;81.17
72061;BME280;59925;52.136;5.420;2022-09-09T11:15:49;100844.84;;;17.82;80.78
72061;BME280;59925;52.136;5.420;2022-09-09T11:18:20;100847.06;;;18.15;79.86
72061;BME280;59925;52.136;5.420;2022-09-09T11:20:50;100844.22;;;18.20;79.20
72061;BME280;59925;52.136;5.420;2022-09-09T11:23:25;100843.56;;;18.23;78.96
72061;BME280;59925;52.136;5.420;2022-09-09T11:25:57;100841.50;;;18.20;78.03
72061;BME280;59925;52.136;5.420;2022-09-09T11:34:06;100834.13;;;17.68;79.16
72061;BME280;59925;52.136;5.420;2022-09-09T11:39:52;100841.50;;;17.76;78.13
72061;BME280;59925;52.136;5.420;2022-09-09T11:42:25;100838.91;;;17.71;78.01
72061;BME280;59925;52.136;5.420;2022-09-09T11:44:52;100838.28;;;17.74;78.25
72061;BME280;59925;52.136;5.420;2022-09-09T11:47:26;100823.28;;;17.77;77.50
72061;BME280;59925;52.136;5.420;2022-09-09T11:50:57;100831.44;;;17.86;77.88
72061;BME280;59925;52.136;5.420;2022-09-09T11:53:19;100832.41;;;17.81;77.38
72061;BME280;59925;52.136;5.420;2022-09-09T11:56:07;100836.72;;;17.82;77.48
72061;BME280;59925;52.136;5.420;2022-09-09T11:58:41;100840.03;;;17.79;77.71
72061;BME280;59925;52.136;5.420;2022-09-09T12:01:16;100833.97;;;17.73;78.44
72061;BME280;59925;52.136;5.420;2022-09-09T12:04:01;100829.81;;;17.67;78.74
72061;BME280;59925;52.136;5.420;2022-09-09T12:06:33;100831.41;;;17.51;79.93
72061;BME280;59925;52.136;5.420;2022-09-09T12:09:08;100842.25;;;17.42;80.99
72061;BME280;59925;52.136;5.420;2022-09-09T12:11:37;100836.84;;;17.51;80.61
72061;BME280;59925;52.136;5.420;2022-09-09T12:14:03;100837.63;;;17.51;80.33
72061;BME280;59925;52.136;5.420;2022-09-09T12:16:35;100844.00;;;17.46;80.25
72061;BME280;59925;52.136;5.420;2022-09-09T12:19:19;100838.72;;;17.33;80.76
72061;BME280;59925;52.136;5.420;2022-09-09T12:22:07;100837.13;;;17.31;81.03
72061;BME280;59925;52.136;5.420;2022-09-09T12:24:48;100849.81;;;17.22;81.11
72061;BME280;59925;52.136;5.420;2022-09-09T12:29:49;100840.50;;;16.97;82.61
72061;BME280;59925;52.136;5.420;2022-09-09T12:32:24;100840.50;;;16.97;83.33
72061;BME280;59925;52.136;5.420;2022-09-09T12:37:38;100839.53;;;17.42;83.42
72061;BME280;59925;52.136;5.420;2022-09-09T12:42:50;100842.44;;;17.63;82.87
72061;BME280;59925;52.136;5.420;2022-09-09T12:45:24;100834.47;;;17.84;82.46
72061;BME280;59925;52.136;5.420;2022-09-09T12:50:30;100823.44;;;17.89;80.63
72061;BME280;59925;52.136;5.420;2022-09-09T12:52:59;100825.53;;;17.92;81.14
72061;BME280;59925;52.136;5.420;2022-09-09T12:55:30;100825.03;;;17.82;81.01
72061;BME280;59925;52.136;5.420;2022-09-09T12:57:57;100825.03;;;17.82;81.07
72061;BME280;59925;52.136;5.420;2022-09-09T13:00:25;100826.97;;;17.90;80.29
72061;BME280;59925;52.136;5.420;2022-09-09T13:02:58;100823.16;;;17.82;79.77
72061;BME280;59925;52.136;5.420;2022-09-09T13:05:35;100828.25;;;17.92;79.98
72061;BME280;59925;52.136;5.420;2022-09-09T13:08:09;100819.94;;;18.06;79.68
72061;BME280;59925;52.136;5.420;2022-09-09T13:13:27;100819.28;;;18.83;77.82
72061;BME280;59925;52.136;5.420;2022-09-09T13:15:58;100827.56;;;18.87;76.06
72061;BME280;59925;52.136;5.420;2022-09-09T13:18:29;100826.38;;;19.14;75.58
72061;BME280;59925;52.136;5.420;2022-09-09T13:20:56;100826.03;;;19.16;74.20
72061;BME280;59925;52.136;5.420;2022-09-09T13:23:30;100824.84;;;18.87;74.50
72061;BME280;59925;52.136;5.420;2022-09-09T13:25:59;100827.50;;;18.66;75.54
72061;BME280;59925;52.136;5.420;2022-09-09T13:28:30;100832.31;;;18.60;76.04
72061;BME280;59925;52.136;5.420;2022-09-09T13:31:02;100831.41;;;18.47;75.97
72061;BME280;59925;52.136;5.420;2022-09-09T13:33:37;100816.34;;;18.59;76.40
72061;BME280;59925;52.136;5.420;2022-09-09T13:36:07;100821.94;;;18.53;76.43
72061;BME280;59925;52.136;5.420;2022-09-09T13:38:40;100824.38;;;18.37;76.57
72061;BME280;59925;52.136;5.420;2022-09-09T13:41:23;100818.34;;;18.32;77.03
72061;BME280;59925;52.136;5.420;2022-09-09T13:43:51;100818.66;;;18.30;77.06
72061;BME280;59925;52.136;5.420;2022-09-09T13:46:30;100814.34;;;18.29;77.10
72061;BME280;59925;52.136;5.420;2022-09-09T13:49:02;100813.38;;;18.34;77.00
72061;BME280;59925;52.136;5.420;2022-09-09T13:54:04;100810.66;;;18.43;76.90
72061;BME280;59925;52.136;5.420;2022-09-09T13:56:36;100812.75;;;18.37;76.34
72061;BME280;59925;52.136;5.420;2022-09-09T13:59:04;100820.41;;;18.26;76.56
72061;BME280;59925;52.136;5.420;2022-09-09T14:01:31;100819.16;;;18.23;76.18
72061;BME280;59925;52.136;5.420;2022-09-09T14:04:01;100814.34;;;18.29;76.93
72061;BME280;59925;52.136;5.420;2022-09-09T14:06:27;100813.88;;;18.27;76.55
72061;BME280;59925;52.136;5.420;2022-09-09T14:08:55;100810.84;;;18.29;76.50
72061;BME280;59925;52.136;5.420;2022-09-09T14:11:21;100812.75;;;18.28;76.64
72061;BME280;59925;52.136;5.420;2022-09-09T14:13:48;100809.91;;;18.25;76.23
72061;BME280;59925;52.136;5.420;2022-09-09T14:16:18;100820.44;;;18.17;76.59
72061;BME280;59925;52.136;5.420;2022-09-09T14:18:45;100810.22;;;18.23;76.89
72061;BME280;59925;52.136;5.420;2022-09-09T14:21:11;100815.13;;;18.30;76.98
72061;BME280;59925;52.136;5.420;2022-09-09T14:23:38;100812.13;;;18.31;76.89
72061;BME280;59925;52.136;5.420;2022-09-09T14:26:05;100807.97;;;18.34;77.51
72061;BME280;59925;52.136;5.420;2022-09-09T14:28:32;100802.22;;;18.27;77.35
72061;BME280;59925;52.136;5.420;2022-09-09T14:31:19;100807.34;;;18.19;77.35
72061;BME280;59925;52.136;5.420;2022-09-09T14:33:45;100803.19;;;18.13;78.35
72061;BME280;59925;52.136;5.420;2022-09-09T14:36:12;100807.06;;;18.12;78.48
72061;BME280;59925;52.136;5.420;2022-09-09T14:38:38;100807.22;;;18.07;79.26
72061;BME280;59925;52.136;5.420;2022-09-09T14:41:13;100812.28;;;18.08;79.94
72061;BME280;59925;52.136;5.420;2022-09-09T14:43:43;100800.81;;;18.03;80.00